Flight Track Log - Related Links

Times and Time Zones

All times are in EDT time to prevent confusion due to time zone crossing. See the CES2930 flight status page for this flight to view local times or setup timezone preferences in your user account.

Time Position Orientation Groundspeed Altitude Reporting Facility
EDT Latitude Longitude Course Direction KTS MPH feet Rate Location/Type
Sat 08:59:00 AM 28.8786 120.5854 346° North  Level Estimated
Sat 09:00:00 AM 28.9530 120.5646 346° North  Level Estimated
Sat 09:01:00 AM 29.0273 120.5439 346° North  Level Estimated
Sat 09:02:00 AM 29.1016 120.5231 346° North  Level Estimated
Sat 09:03:00 AM 29.1759 120.5023 346° North  Level Estimated
Sat 09:04:00 AM 29.2502 120.4815 346° North  Level Estimated
Sat 09:05:00 AM 29.3245 120.4606 346° North  Level Estimated
Sat 09:06:00 AM 29.3988 120.4398 346° North  Level Estimated
Sat 09:07:00 AM 29.4731 120.4188 346° North  Level Estimated
Sat 09:08:00 AM 29.5474 120.3979 346° North  Level Estimated
Sat 09:09:00 AM 29.6217 120.3769 346° North  Level Estimated
Sat 09:10:00 AM 29.6960 120.3559 346° North  Level Estimated
Sat 09:11:00 AM 29.7703 120.3348 346° North  Level Estimated
Sat 09:12:00 AM 29.8445 120.3138 346° North  Level Estimated
Sat 09:13:00 AM 29.9188 120.2926 346° North  Level Estimated
Sat 09:14:00 AM 29.9931 120.2715 346° North  Level Estimated
Sat 09:15:00 AM 30.0674 120.2503 346° North  Level Estimated
Sat 09:16:00 AM 30.1416 120.2291 346° North  Level Estimated
Sat 09:17:00 AM 30.2159 120.2079 346° North  Level Estimated
Sat 09:18:00 AM 30.2901 120.1866 346° North  Level Estimated
Sat 09:19:00 AM 30.3644 120.1653 346° North  Level Estimated
Sat 09:20:00 AM 30.4387 120.1440 346° North  Level Estimated
Sat 09:21:00 AM 30.5129 120.1226 346° North  Level Estimated
Sat 09:22:00 AM 30.5872 120.1012 346° North  Level Estimated
Sat 09:23:00 AM 30.6614 120.0798 346° North  Level Estimated
Sat 09:24:00 AM 30.7356 120.0583 346° North  Level Estimated
Sat 09:25:00 AM 30.8099 120.0368 346° North  Level Estimated
Sat 09:26:00 AM 30.8841 120.0153 346° North  Level Estimated
Sat 09:27:00 AM 30.9583 119.9938 346° North  Level Estimated
Sat 09:28:00 AM 31.0326 119.9722 346° North  Level Estimated
Sat 09:29:00 AM 31.1068 119.9505 346° North  Level Estimated
Sat 09:30:00 AM 31.1810 119.9289 346° North  Level Estimated
Sat 09:31:00 AM 31.2552 119.9072 346° North  Level Estimated
Sat 09:32:00 AM 31.3294 119.8854 346° North  Level Estimated
Sat 09:33:00 AM 31.4036 119.8637 346° North  Level Estimated
Sat 09:34:00 AM 31.4778 119.8419 346° North  Level Estimated
Sat 09:35:00 AM 31.5520 119.8200 346° North  Level Estimated
Sat 09:36:00 AM 31.6262 119.7982 346° North  Level Estimated
Sat 09:37:00 AM 31.7004 119.7763 346° North  Level Estimated
Sat 09:38:00 AM 31.7746 119.7543 346° North  Level Estimated
Sat 09:39:00 AM 31.8488 119.7324 346° North  Level Estimated
Sat 09:40:00 AM 31.9230 119.7103 346° North  Level Estimated
Sat 09:41:00 AM 31.9971 119.6883 346° North  Level Estimated
Sat 09:42:00 AM 32.0713 119.6662 346° North  Level Estimated
Sat 09:43:00 AM 32.1455 119.6441 346° North  Level Estimated
Sat 09:44:00 AM 32.2196 119.6219 346° North  Level Estimated
Sat 09:45:00 AM 32.2938 119.5997 346° North  Level Estimated
Sat 09:46:00 AM 32.3680 119.5775 346° North  Level Estimated
Sat 09:47:00 AM 32.4421 119.5553 346° North  Level Estimated
Sat 09:48:00 AM 32.5163 119.5330 346° North  Level Estimated
Sat 09:49:00 AM 32.5904 119.5106 346° North  Level Estimated
Sat 09:50:00 AM 32.6645 119.4883 346° North  Level Estimated
Sat 09:51:00 AM 32.7387 119.4658 346° North  Level Estimated
Sat 09:52:00 AM 32.8128 119.4434 346° North  Level Estimated
Sat 09:53:00 AM 32.8869 119.4209 346° North  Level Estimated
Sat 09:54:00 AM 32.9610 119.3984 346° North  Level Estimated
Sat 09:55:00 AM 33.0352 119.3758 346° North  Level Estimated
Sat 09:56:00 AM 33.1093 119.3532 346° North  Level Estimated
Sat 09:57:00 AM 33.1834 119.3306 346° North  Level Estimated
Sat 09:58:00 AM 33.2575 119.3079 346° North  Level Estimated
Sat 09:59:00 AM 33.3316 119.2852 346° North  Level Estimated
Sat 10:00:00 AM 33.4057 119.2625 346° North  Level Estimated
Sat 10:01:00 AM 33.4798 119.2397 346° North  Level Estimated
Sat 10:02:00 AM 33.5539 119.2168 346° North  Level Estimated
Sat 10:03:00 AM 33.6280 119.1940 346° North  Level Estimated
Sat 10:04:00 AM 33.7021 119.1711 346° North  Level Estimated
Sat 10:05:00 AM 33.7761 119.1481 346° North  Level Estimated
Sat 10:06:00 AM 33.7772 119.1478 346° North  Level Estimated
Sat 10:07:00 AM 33.7772 119.1478 320° Northwest  Level Estimated
Sat 10:08:00 AM 33.7772 119.1478 320° Northwest  Level Estimated
Sat 10:09:00 AM 33.7772 119.1478 320° Northwest  Level Estimated
Sat 10:10:00 AM 33.7772 119.1478 320° Northwest  Level Estimated
Sat 10:11:00 AM 33.7772 119.1478 320° Northwest  Level Estimated
Sat 10:12:00 AM 33.7772 119.1478 320° Northwest  Level Estimated
Sat 10:13:00 AM 33.7772 119.1478 320° Northwest  Level Estimated
Sat 10:14:00 AM 33.7772 119.1478 320° Northwest  Level Estimated
Sat 10:15:00 AM 33.7772 119.1478 320° Northwest  Level Estimated
Sat 10:16:00 AM 33.7772 119.1478 320° Northwest  Level Estimated
Sat 10:17:00 AM 33.7772 119.1478 320° Northwest  Level Estimated
Sat 10:18:00 AM 33.7772 119.1478 320° Northwest  Level Estimated
Sat 10:19:00 AM 33.7772 119.1478 320° Northwest  Level Estimated
Sat 10:20:00 AM 33.7772 119.1478 320° Northwest  Level Estimated

Login

Don't have an account? Register now (free) for customized features, flight alerts, and more!